Time;durP1;ratioP1;P1;durP2;ratioP2;P2;SDS_P1;SDS_P2;PMS_P1;PMS_P2;Temp;Humidity;BMP_temperature;BMP_pressure;BME280_temperature;BME280_humidity;BME280_pressure;Samples;Min_cycle;Max_cycle;Signal;HPM_P1;HPM_P2
2021/06/23 00:00:46;;;;;;;20.93;17.23;;;12.30;99.90;;;;;;4951828;29;20391;-77
2021/06/23 00:03:13;;;;;;;23.27;17.13;;;12.40;99.90;;;;;;4955593;29;20227;-76
2021/06/23 00:05:40;;;;;;;23.30;18.60;;;12.30;99.90;;;;;;4946770;29;20235;-77
2021/06/23 00:08:08;;;;;;;25.53;17.13;;;12.30;99.90;;;;;;4936605;29;20242;-76
2021/06/23 00:10:35;;;;;;;22.40;17.53;;;12.20;99.90;;;;;;4947050;29;20207;-76
2021/06/23 00:13:04;;;;;;;21.07;16.80;;;12.20;99.90;;;;;;4955895;29;20235;-77
2021/06/23 00:15:32;;;;;;;24.83;18.37;;;12.20;99.90;;;;;;4954979;29;20317;-77
2021/06/23 00:18:01;;;;;;;22.70;16.70;;;12.20;99.90;;;;;;4936279;29;20739;-76
2021/06/23 00:20:28;;;;;;;21.30;15.73;;;12.10;99.90;;;;;;4954758;29;20310;-76
2021/06/23 00:22:55;;;;;;;24.07;15.97;;;12.10;99.90;;;;;;4954659;29;20282;-76
2021/06/23 00:25:22;;;;;;;20.40;14.60;;;12.00;99.90;;;;;;4942489;28;20295;-76
2021/06/23 00:27:49;;;;;;;17.77;13.33;;;12.00;99.90;;;;;;4955381;29;20206;-76
2021/06/23 00:30:17;;;;;;;18.47;12.83;;;11.90;99.90;;;;;;4955590;29;20290;-77
2021/06/23 00:32:46;;;;;;;19.67;13.53;;;11.80;99.90;;;;;;4955108;29;20203;-76
2021/06/23 00:35:15;;;;;;;20.70;13.47;;;11.80;99.90;;;;;;4954842;29;20266;-76
2021/06/23 00:37:42;;;;;;;16.43;12.37;;;11.70;99.90;;;;;;4936023;29;20566;-76
2021/06/23 00:40:12;;;;;;;17.13;12.60;;;11.60;99.90;;;;;;4935973;29;20232;-76
2021/06/23 00:42:41;;;;;;;16.17;12.30;;;11.60;99.90;;;;;;4952202;29;20203;-76
2021/06/23 00:45:10;;;;;;;18.33;12.67;;;11.60;99.90;;;;;;4954295;28;20249;-76
2021/06/23 00:47:37;;;;;;;18.00;11.37;;;11.60;99.90;;;;;;4952322;29;20316;-76
2021/06/23 00:50:06;;;;;;;19.63;12.23;;;11.50;99.90;;;;;;4935584;29;20214;-76
2021/06/23 00:52:35;;;;;;;17.27;11.77;;;11.50;99.90;;;;;;4939423;29;20646;-76
2021/06/23 00:55:03;;;;;;;16.03;11.57;;;11.50;99.90;;;;;;4948818;29;20294;-76
2021/06/23 00:57:32;;;;;;;17.87;11.03;;;11.50;99.90;;;;;;4955196;29;20750;-77
2021/06/23 00:59:59;;;;;;;16.23;11.33;;;11.50;99.90;;;;;;4954680;29;20233;-76
2021/06/23 01:02:27;;;;;;;19.53;11.17;;;11.40;99.90;;;;;;4954176;29;20545;-77
2021/06/23 01:04:55;;;;;;;14.77;10.20;;;11.40;99.90;;;;;;4954568;29;20298;-77
2021/06/23 01:07:22;;;;;;;16.63;9.53;;;11.40;99.90;;;;;;4953888;29;20226;-76
2021/06/23 01:09:52;;;;;;;14.83;10.30;;;11.40;99.90;;;;;;4954854;29;20540;-77
2021/06/23 01:12:44;;;;;;;15.00;10.63;;;11.40;99.90;;;;;;4954539;29;20297;-76
2021/06/23 01:15:14;;;;;;;15.47;9.93;;;11.40;99.90;;;;;;4952271;29;20207;-77
2021/06/23 01:17:40;;;;;;;13.90;9.80;;;11.30;99.90;;;;;;4937018;29;20204;-77
2021/06/23 01:20:10;;;;;;;16.80;10.37;;;11.30;99.90;;;;;;4953995;29;20257;-77
2021/06/23 01:22:40;;;;;;;14.17;9.60;;;11.30;99.90;;;;;;4937475;29;20321;-77
2021/06/23 01:25:10;;;;;;;14.63;10.10;;;11.30;99.90;;;;;;4935426;29;20211;-77
2021/06/23 01:27:37;;;;;;;15.23;9.40;;;11.30;99.90;;;;;;4935288;29;20870;-76
2021/06/23 01:30:05;;;;;;;19.13;10.60;;;11.30;99.90;;;;;;4935246;29;20732;-77
2021/06/23 01:32:32;;;;;;;14.90;9.83;;;11.30;99.90;;;;;;4934952;29;20715;-77
2021/06/23 01:35:00;;;;;;;15.17;10.10;;;11.30;99.90;;;;;;4953445;29;20207;-77
2021/06/23 01:37:27;;;;;;;12.93;9.87;;;11.30;99.90;;;;;;4953757;29;20318;-76
2021/06/23 01:39:56;;;;;;;13.10;9.40;;;11.30;99.90;;;;;;4954167;29;20297;-76
2021/06/23 01:42:23;;;;;;;16.17;9.60;;;11.30;99.90;;;;;;4954199;29;20408;-77
2021/06/23 01:44:49;;;;;;;15.60;9.33;;;11.30;99.90;;;;;;4953951;29;20261;-76
2021/06/23 01:47:17;;;;;;;14.23;8.97;;;11.30;99.90;;;;;;4948907;29;20238;-76
2021/06/23 01:49:43;;;;;;;13.63;8.77;;;11.40;99.90;;;;;;4922276;29;20242;-76
2021/06/23 01:52:10;;;;;;;12.10;8.57;;;11.40;99.90;;;;;;4940241;29;20631;-77
2021/06/23 01:54:41;;;;;;;15.10;9.57;;;11.40;99.90;;;;;;4943114;29;20250;-76
2021/06/23 01:57:11;;;;;;;13.73;9.50;;;11.40;99.90;;;;;;4949623;28;20714;-76
2021/06/23 01:59:38;;;;;;;14.27;9.00;;;11.40;99.90;;;;;;4935600;29;20759;-76
2021/06/23 02:02:12;;;;;;;16.87;9.50;;;11.40;99.90;;;;;;4952245;29;20245;-76
2021/06/23 02:04:51;;;;;;;12.00;8.73;;;11.50;99.90;;;;;;4953056;29;20207;-76
2021/06/23 02:07:41;;;;;;;15.23;9.17;;;11.40;99.90;;;;;;4953954;29;20203;-76
2021/06/23 02:10:25;;;;;;;16.30;8.77;;;11.50;99.90;;;;;;4953660;29;20794;-76
2021/06/23 02:13:43;;;;;;;15.80;9.33;;;11.50;99.90;;;;;;4934702;29;20239;-76
2021/06/23 02:16:12;;;;;;;15.97;9.53;;;11.50;99.90;;;;;;4935979;29;20262;-76
2021/06/23 02:18:40;;;;;;;15.63;9.57;;;11.50;99.90;;;;;;4934260;29;20212;-76
2021/06/23 02:21:08;;;;;;;18.17;9.77;;;11.60;99.90;;;;;;4938644;29;20989;-77
2021/06/23 02:23:37;;;;;;;13.13;9.37;;;11.60;99.90;;;;;;4934311;29;20239;-76
2021/06/23 02:26:05;;;;;;;18.43;10.03;;;11.60;99.90;;;;;;4928259;29;20571;-77
2021/06/23 02:28:34;;;;;;;19.63;10.33;;;11.60;99.90;;;;;;4933687;29;20298;-76
2021/06/23 02:31:02;;;;;;;17.50;10.13;;;11.60;99.90;;;;;;4938692;29;20199;-77
2021/06/23 02:33:29;;;;;;;16.07;9.47;;;11.60;99.90;;;;;;4953188;29;20210;-76
2021/06/23 02:35:57;;;;;;;22.67;10.07;;;11.60;99.90;;;;;;4953406;29;20265;-76
2021/06/23 02:38:25;;;;;;;16.10;10.33;;;11.60;99.90;;;;;;4953705;29;20257;-76
2021/06/23 02:40:53;;;;;;;17.23;10.23;;;11.60;99.90;;;;;;4953211;29;20699;-77
2021/06/23 02:43:20;;;;;;;16.47;10.47;;;11.70;99.90;;;;;;4953548;29;20298;-76
2021/06/23 02:45:50;;;;;;;14.40;10.43;;;11.70;99.90;;;;;;4937042;29;20235;-76
2021/06/23 02:48:20;;;;;;;15.80;10.17;;;11.70;99.90;;;;;;4941511;29;20207;-76
2021/06/23 02:50:58;;;;;;;15.73;9.97;;;11.70;99.90;;;;;;4952207;29;20230;-76
2021/06/23 02:53:25;;;;;;;15.93;10.73;;;11.70;99.90;;;;;;4934515;29;20207;-76
2021/06/23 02:55:53;;;;;;;16.07;10.33;;;11.80;99.90;;;;;;4942111;29;20242;-76
2021/06/23 02:58:20;;;;;;;15.77;10.37;;;11.80;99.90;;;;;;4953714;29;20304;-76
2021/06/23 03:00:50;;;;;;;19.30;10.77;;;11.80;99.90;;;;;;4951797;29;20210;-76
2021/06/23 03:03:16;;;;;;;16.53;10.63;;;11.80;99.90;;;;;;4953032;29;20231;-76
2021/06/23 03:05:43;;;;;;;19.17;10.33;;;11.80;99.90;;;;;;4953340;29;20260;-77
2021/06/23 03:08:10;;;;;;;18.70;10.40;;;11.80;99.90;;;;;;4953654;28;20238;-76
2021/06/23 03:10:37;;;;;;;17.03;10.00;;;11.80;99.90;;;;;;4957026;29;20302;-77
2021/06/23 03:13:04;;;;;;;18.63;10.37;;;11.80;99.90;;;;;;4950195;29;20286;-76
2021/06/23 03:15:31;;;;;;;16.00;10.83;;;11.80;99.90;;;;;;4937233;29;20247;-76
2021/06/23 03:18:02;;;;;;;18.87;11.17;;;11.80;99.90;;;;;;4937435;29;20263;-76
2021/06/23 03:20:29;;;;;;;17.87;11.13;;;11.80;99.90;;;;;;4937737;29;20235;-76
2021/06/23 03:22:56;;;;;;;18.53;11.90;;;11.80;99.90;;;;;;4935888;29;20297;-78
2021/06/23 03:25:23;;;;;;;18.53;11.40;;;11.80;99.90;;;;;;4937492;29;20290;-76
2021/06/23 03:27:54;;;;;;;20.13;11.87;;;11.80;99.90;;;;;;4937544;29;20288;-76
2021/06/23 03:30:22;;;;;;;18.97;12.27;;;11.90;99.90;;;;;;4937270;29;20204;-76
2021/06/23 03:32:50;;;;;;;16.30;11.40;;;11.90;99.90;;;;;;4937188;29;20301;-77
2021/06/23 03:35:20;;;;;;;17.90;11.17;;;11.90;99.90;;;;;;4947157;29;20195;-76
2021/06/23 03:37:47;;;;;;;21.83;12.90;;;12.00;99.90;;;;;;4956263;29;20313;-76
2021/06/23 03:40:14;;;;;;;19.87;12.73;;;11.90;99.90;;;;;;4946435;29;20286;-77
2021/06/23 03:42:41;;;;;;;20.23;12.43;;;12.00;99.90;;;;;;4937539;29;20295;-76
2021/06/23 03:45:10;;;;;;;19.20;12.77;;;11.90;99.90;;;;;;4936906;29;20238;-76
2021/06/23 03:47:37;;;;;;;20.17;12.90;;;12.00;99.90;;;;;;4937278;29;20302;-76
2021/06/23 03:50:05;;;;;;;20.53;12.87;;;12.00;99.90;;;;;;4942121;29;20231;-78
2021/06/23 03:52:33;;;;;;;18.80;12.60;;;12.00;99.90;;;;;;4956552;29;20291;-76
2021/06/23 03:55:01;;;;;;;17.63;12.13;;;12.00;99.90;;;;;;4954831;29;20302;-77
2021/06/23 03:57:28;;;;;;;18.00;11.63;;;12.00;99.90;;;;;;4955898;29;20262;-77
2021/06/23 03:59:55;;;;;;;18.10;12.07;;;11.90;99.90;;;;;;4954973;29;20294;-77
2021/06/23 04:02:22;;;;;;;16.90;11.53;;;12.00;99.90;;;;;;4956121;29;20241;-77
2021/06/23 04:04:49;;;;;;;16.77;11.23;;;12.00;99.90;;;;;;4950887;29;20234;-77
2021/06/23 04:07:16;;;;;;;16.80;11.07;;;12.00;99.90;;;;;;4946598;29;20279;-82
2021/06/23 04:09:45;;;;;;;18.27;11.33;;;12.00;99.90;;;;;;4923083;29;20207;-82
2021/06/23 04:12:14;;;;;;;19.93;11.80;;;12.00;99.90;;;;;;4954841;29;20273;-82
2021/06/23 04:14:41;;;;;;;17.00;10.80;;;12.00;99.90;;;;;;4955836;29;20231;-82
2021/06/23 04:17:08;;;;;;;18.23;10.60;;;12.00;99.90;;;;;;4955357;29;20751;-82
2021/06/23 04:19:35;;;;;;;15.67;10.87;;;12.00;99.90;;;;;;4954831;28;20290;-83
2021/06/23 04:22:02;;;;;;;17.70;11.60;;;12.00;99.90;;;;;;4942951;29;20278;-83
2021/06/23 04:24:29;;;;;;;21.60;11.67;;;12.00;99.90;;;;;;4936915;29;20258;-83
2021/06/23 04:26:57;;;;;;;19.53;11.00;;;12.00;99.90;;;;;;4936368;29;20231;-82
2021/06/23 04:29:24;;;;;;;20.00;11.20;;;12.00;99.90;;;;;;4936189;29;20235;-82
2021/06/23 04:31:51;;;;;;;17.40;11.07;;;12.00;99.90;;;;;;4942490;29;20223;-82
2021/06/23 04:34:18;;;;;;;19.17;10.97;;;12.00;99.90;;;;;;4952996;29;20294;-82
2021/06/23 04:36:45;;;;;;;20.10;11.23;;;12.00;99.90;;;;;;4953706;29;20302;-82
2021/06/23 04:39:12;;;;;;;16.37;10.93;;;12.00;99.90;;;;;;4949559;29;20640;-82
2021/06/23 04:41:39;;;;;;;14.93;10.53;;;12.10;99.90;;;;;;4936153;29;20199;-82
2021/06/23 04:44:07;;;;;;;18.63;11.40;;;12.10;99.90;;;;;;4936359;29;20306;-82
2021/06/23 04:46:34;;;;;;;20.57;11.30;;;12.10;99.90;;;;;;4936252;29;20196;-82
2021/06/23 04:49:01;;;;;;;19.67;11.27;;;12.10;99.90;;;;;;4947632;29;20238;-83
2021/06/23 04:51:28;;;;;;;20.03;11.43;;;12.10;99.90;;;;;;4954180;29;20245;-82
2021/06/23 04:53:56;;;;;;;20.17;10.40;;;12.20;99.90;;;;;;4951690;29;20292;-83
2021/06/23 04:56:22;;;;;;;20.97;11.33;;;12.20;99.90;;;;;;4935718;29;20681;-83
2021/06/23 04:58:50;;;;;;;17.73;10.50;;;12.20;99.90;;;;;;4935898;29;20291;-82
2021/06/23 05:01:18;;;;;;;17.43;10.90;;;12.20;99.90;;;;;;4954039;29;20211;-82
2021/06/23 05:03:45;;;;;;;17.53;10.60;;;12.20;99.90;;;;;;4946042;29;20204;-84
2021/06/23 05:06:12;;;;;;;19.40;10.57;;;12.20;99.90;;;;;;4954050;29;20286;-84
2021/06/23 05:08:39;;;;;;;19.53;10.10;;;12.20;99.90;;;;;;4954688;29;20227;-84
2021/06/23 05:11:06;;;;;;;20.13;10.53;;;12.30;99.90;;;;;;4954681;29;20262;-83
2021/06/23 05:13:33;;;;;;;21.13;10.43;;;12.30;99.90;;;;;;4955004;28;20279;-84
2021/06/23 05:16:00;;;;;;;21.70;9.70;;;12.30;99.90;;;;;;4955039;29;20202;-84
2021/06/23 05:18:30;;;;;;;19.67;9.47;;;12.30;99.90;;;;;;4938039;29;20259;-84
2021/06/23 05:20:58;;;;;;;19.60;9.97;;;12.40;99.90;;;;;;4938849;29;20241;-84
2021/06/23 05:23:25;;;;;;;17.17;9.13;;;12.40;99.90;;;;;;4954780;29;20262;-86
2021/06/23 05:25:52;;;;;;;17.00;9.30;;;12.40;99.90;;;;;;4942870;29;20210;-85
2021/06/23 05:28:19;;;;;;;16.97;8.93;;;12.40;99.90;;;;;;4944432;29;20250;-85
2021/06/23 05:30:46;;;;;;;19.73;8.83;;;12.50;99.90;;;;;;4941231;28;20230;-85
2021/06/23 05:33:13;;;;;;;16.70;8.80;;;12.50;99.90;;;;;;4954051;29;20226;-86
2021/06/23 05:35:42;;;;;;;16.37;8.03;;;12.70;99.90;;;;;;4942039;29;20307;-85
2021/06/23 05:38:08;;;;;;;20.07;9.00;;;12.70;99.90;;;;;;4954479;29;20266;-84
2021/06/23 05:40:38;;;;;;;16.13;7.87;;;12.70;99.90;;;;;;4949966;29;20289;-81
2021/06/23 05:43:05;;;;;;;14.40;7.50;;;12.80;99.90;;;;;;4954000;29;20677;-78
2021/06/23 05:45:32;;;;;;;15.57;8.13;;;12.80;99.90;;;;;;4954276;29;20258;-89
2021/06/23 05:47:59;;;;;;;18.17;7.67;;;12.90;99.90;;;;;;4954333;29;20222;-82
2021/06/23 05:50:26;;;;;;;16.07;6.90;;;13.00;99.90;;;;;;4953799;29;20281;-84
2021/06/23 05:52:54;;;;;;;13.63;7.33;;;13.10;99.90;;;;;;4949303;29;20290;-84
2021/06/23 05:55:22;;;;;;;11.63;6.67;;;13.10;99.90;;;;;;4950769;29;20290;-82
2021/06/23 05:57:52;;;;;;;12.73;6.67;;;13.10;99.90;;;;;;4953603;29;20317;-82
2021/06/23 06:00:20;;;;;;;13.47;6.67;;;13.10;99.90;;;;;;4941181;29;20231;-82
2021/06/23 06:02:48;;;;;;;14.10;6.77;;;13.20;99.90;;;;;;4943124;29;20208;-83
2021/06/23 06:05:15;;;;;;;11.70;6.43;;;13.40;99.90;;;;;;4948644;29;20637;-82
2021/06/23 06:07:42;;;;;;;13.50;6.37;;;13.40;99.90;;;;;;4953402;29;20230;-82
2021/06/23 06:10:12;;;;;;;14.53;6.23;;;13.40;99.90;;;;;;4952815;29;20723;-82
2021/06/23 06:12:39;;;;;;;13.10;6.03;;;13.40;99.90;;;;;;4954296;29;20256;-82
2021/06/23 06:15:07;;;;;;;15.53;5.90;;;13.60;99.90;;;;;;4953882;29;20684;-82
2021/06/23 06:17:34;;;;;;;14.37;5.60;;;13.60;99.90;;;;;;4951565;29;20258;-82
2021/06/23 06:20:01;;;;;;;12.53;4.77;;;13.50;99.90;;;;;;4934943;29;20242;-82
2021/06/23 06:22:28;;;;;;;12.93;5.57;;;13.50;99.90;;;;;;4945677;28;20243;-82
2021/06/23 06:24:55;;;;;;;11.73;5.23;;;13.50;99.90;;;;;;4937922;29;20231;-83
2021/06/23 06:27:23;;;;;;;10.73;5.13;;;13.50;99.90;;;;;;4941874;29;20227;-82
2021/06/23 06:29:50;;;;;;;9.43;4.93;;;13.60;99.90;;;;;;4946251;29;20283;-82
2021/06/23 06:32:17;;;;;;;14.63;4.90;;;13.60;99.90;;;;;;4941217;28;20641;-82
2021/06/23 06:34:44;;;;;;;13.43;5.70;;;13.60;99.90;;;;;;4949389;28;20286;-81
2021/06/23 06:37:11;;;;;;;12.53;5.17;;;13.50;99.90;;;;;;4944014;29;20302;-82
2021/06/23 06:39:39;;;;;;;15.33;5.73;;;13.50;99.90;;;;;;4944666;29;20262;-81
2021/06/23 06:42:07;;;;;;;14.63;5.77;;;13.70;99.90;;;;;;4951000;29;20289;-82
2021/06/23 06:44:35;;;;;;;12.73;5.57;;;13.70;99.90;;;;;;4944313;29;20235;-82
2021/06/23 06:47:03;;;;;;;13.67;5.63;;;13.70;99.90;;;;;;4945550;29;20239;-82
2021/06/23 06:49:30;;;;;;;18.50;5.73;;;13.70;99.90;;;;;;4948100;29;20250;-83
2021/06/23 06:51:58;;;;;;;13.73;5.33;;;13.70;99.90;;;;;;4955671;29;20628;-82
2021/06/23 06:54:26;;;;;;;13.47;5.87;;;13.80;99.90;;;;;;4956115;29;20207;-82
2021/06/23 06:56:52;;;;;;;12.53;5.63;;;13.80;99.90;;;;;;4942597;29;20250;-82
2021/06/23 06:59:20;;;;;;;11.77;5.03;;;13.90;99.90;;;;;;4952951;29;20389;-82
2021/06/23 07:01:49;;;;;;;11.97;5.10;;;14.00;99.90;;;;;;4940747;29;20203;-82
2021/06/23 07:04:17;;;;;;;13.20;5.70;;;14.10;99.90;;;;;;4952682;29;20199;-82
2021/06/23 07:06:45;;;;;;;12.20;5.40;;;14.20;99.90;;;;;;4954056;28;20235;-82
2021/06/23 07:09:12;;;;;;;14.60;5.40;;;14.20;99.90;;;;;;4952529;29;20628;-82
2021/06/23 07:11:39;;;;;;;13.23;5.60;;;14.10;99.90;;;;;;4954204;28;20290;-82
2021/06/23 07:14:06;;;;;;;10.70;5.50;;;14.10;99.90;;;;;;4952428;29;20238;-82
2021/06/23 07:16:33;;;;;;;10.27;5.17;;;14.20;99.90;;;;;;4952800;29;20265;-83
2021/06/23 07:19:01;;;;;;;16.87;6.10;;;14.40;99.90;;;;;;4951338;29;20330;-83
2021/06/23 07:21:28;;;;;;;13.47;5.67;;;14.30;99.90;;;;;;4952281;29;20273;-82
2021/06/23 07:23:58;;;;;;;17.23;6.23;;;14.40;99.90;;;;;;4953509;29;20199;-83
2021/06/23 07:26:25;;;;;;;13.20;5.40;;;14.40;99.90;;;;;;4944844;29;20214;-81
2021/06/23 07:28:53;;;;;;;13.83;5.83;;;14.60;99.90;;;;;;4946045;29;20227;-82
2021/06/23 07:31:24;;;;;;;11.83;5.30;;;14.60;99.90;;;;;;4951388;29;20207;-82
2021/06/23 07:33:54;;;;;;;16.57;5.43;;;14.80;99.90;;;;;;4936652;29;20313;-82
2021/06/23 07:36:38;;;;;;;14.70;5.57;;;14.70;99.90;;;;;;4946622;29;20279;-82
2021/06/23 07:39:08;;;;;;;9.30;5.20;;;14.70;99.90;;;;;;4954894;29;20270;-82
2021/06/23 07:41:35;;;;;;;15.10;5.37;;;14.70;99.90;;;;;;4956482;28;20251;-82
2021/06/23 07:44:02;;;;;;;11.80;5.60;;;14.70;99.90;;;;;;4951934;29;20203;-82
2021/06/23 07:46:34;;;;;;;11.77;5.40;;;14.80;99.90;;;;;;4953307;29;20681;-81
2021/06/23 07:49:01;;;;;;;16.33;5.50;;;14.80;99.90;;;;;;4944946;29;20203;-82
2021/06/23 07:51:39;;;;;;;12.70;5.27;;;14.80;99.90;;;;;;4951531;29;20281;-82
2021/06/23 07:54:17;;;;;;;17.77;5.57;;;15.00;99.90;;;;;;4954420;28;20230;-82
2021/06/23 08:01:15;;;;;;;12.67;5.10;;;15.20;99.90;;;;;;4946836;29;20218;-82
2021/06/23 08:08:24;;;;;;;11.10;5.03;;;15.60;99.90;;;;;;4948506;29;20375;-82
2021/06/23 08:10:53;;;;;;;14.87;5.20;;;15.30;99.90;;;;;;4952989;29;20982;-83
2021/06/23 08:13:21;;;;;;;11.10;5.13;;;15.20;99.90;;;;;;4937176;29;20677;-83
2021/06/23 08:15:50;;;;;;;18.10;5.23;;;15.30;99.90;;;;;;4953081;29;20231;-82
2021/06/23 08:18:20;;;;;;;10.60;5.27;;;15.50;99.90;;;;;;4941499;29;20283;-82
2021/06/23 08:20:47;;;;;;;11.17;5.00;;;15.50;99.90;;;;;;4942009;29;20286;-83
2021/06/23 08:23:16;;;;;;;9.63;5.00;;;15.60;99.90;;;;;;4950064;29;20337;-83
2021/06/23 08:25:43;;;;;;;9.20;4.50;;;15.80;99.90;;;;;;4951650;29;20203;-83
2021/06/23 08:28:10;;;;;;;12.43;4.70;;;15.90;99.90;;;;;;4939597;29;20200;-83
2021/06/23 08:30:37;;;;;;;9.53;3.93;;;15.80;99.90;;;;;;4957456;29;20238;-84
2021/06/23 08:33:05;;;;;;;7.60;4.20;;;15.70;99.90;;;;;;4950935;29;20222;-83
2021/06/23 08:35:32;;;;;;;11.17;4.17;;;15.80;99.90;;;;;;4951988;29;20215;-83
2021/06/23 08:37:59;;;;;;;11.63;4.40;;;15.90;99.90;;;;;;4957159;29;20297;-83
2021/06/23 08:40:27;;;;;;;8.80;4.00;;;15.60;99.90;;;;;;4957098;28;20207;-83
2021/06/23 08:42:54;;;;;;;12.07;4.57;;;16.00;99.90;;;;;;4938437;29;20222;-83
2021/06/23 08:45:22;;;;;;;9.07;4.40;;;16.30;99.90;;;;;;4954351;29;20207;-83
2021/06/23 08:47:50;;;;;;;8.47;3.90;;;16.10;99.90;;;;;;4938619;29;20268;-83
2021/06/23 08:50:20;;;;;;;8.67;3.83;;;16.00;99.90;;;;;;4942184;29;20210;-83
2021/06/23 08:52:47;;;;;;;10.17;3.80;;;15.70;99.90;;;;;;4957139;29;20626;-83
2021/06/23 08:55:19;;;;;;;10.30;4.53;;;15.40;99.90;;;;;;4957198;29;20254;-83
2021/06/23 08:57:48;;;;;;;7.27;3.20;;;15.70;99.90;;;;;;4957554;29;20225;-83
2021/06/23 09:00:17;;;;;;;12.37;3.80;;;15.80;99.90;;;;;;4957519;29;20199;-83
2021/06/23 09:02:45;;;;;;;7.60;3.23;;;16.10;99.90;;;;;;4955864;29;20549;-83
2021/06/23 09:05:14;;;;;;;13.47;3.70;;;16.20;99.90;;;;;;4943517;29;20643;-83
2021/06/23 09:07:43;;;;;;;5.40;3.13;;;16.50;99.90;;;;;;4945069;28;20265;-83
2021/06/23 09:10:36;;;;;;;9.67;3.30;;;16.80;99.90;;;;;;4948581;29;20206;-83
2021/06/23 09:13:19;;;;;;;4.43;2.70;;;16.80;99.90;;;;;;4943029;29;20195;-83
2021/06/23 09:15:55;;;;;;;7.60;3.40;;;16.60;99.90;;;;;;4956647;29;20206;-83
2021/06/23 09:18:24;;;;;;;5.67;3.23;;;16.30;99.90;;;;;;4952937;29;20244;-83
2021/06/23 09:20:53;;;;;;;7.77;3.77;;;16.10;99.90;;;;;;4925626;29;20294;-83
2021/06/23 09:23:38;;;;;;;7.53;3.30;;;16.10;99.90;;;;;;4956422;29;20203;-83
2021/06/23 09:26:19;;;;;;;5.00;2.80;;;16.00;99.90;;;;;;4942232;29;20195;-83
2021/06/23 09:29:05;;;;;;;5.80;2.60;;;15.80;99.90;;;;;;4941182;29;20222;-84
2021/06/23 09:31:52;;;;;;;5.17;3.00;;;15.90;99.90;;;;;;4954170;29;20231;-83
2021/06/23 09:34:23;;;;;;;5.93;2.50;;;16.10;99.90;;;;;;4952834;29;20203;-83
2021/06/23 09:36:50;;;;;;;7.20;2.77;;;16.40;99.90;;;;;;4945880;29;20238;-83
2021/06/23 09:39:20;;;;;;;5.23;3.13;;;16.50;99.90;;;;;;4951833;29;20254;-83
2021/06/23 09:41:48;;;;;;;5.63;2.50;;;16.50;99.90;;;;;;4947883;29;20206;-81
2021/06/23 09:44:16;;;;;;;6.33;2.87;;;16.60;99.90;;;;;;4933074;29;20203;-83
2021/06/23 09:46:45;;;;;;;5.43;2.80;;;16.70;99.90;;;;;;4946149;29;20231;-83
2021/06/23 09:49:15;;;;;;;6.63;2.90;;;16.40;99.90;;;;;;4947901;29;20204;-82
2021/06/23 09:51:45;;;;;;;8.57;2.83;;;16.30;99.90;;;;;;4953717;29;20234;-82
2021/06/23 09:54:13;;;;;;;8.10;3.37;;;16.60;99.90;;;;;;4956388;29;20294;-82
2021/06/23 09:56:44;;;;;;;8.27;3.20;;;16.80;99.90;;;;;;4953385;29;20230;-83
2021/06/23 09:59:18;;;;;;;7.07;2.87;;;16.70;99.90;;;;;;4954943;29;20695;-83
2021/06/23 10:01:47;;;;;;;6.83;3.00;;;16.80;99.90;;;;;;4954712;29;20675;-83
2021/06/23 10:04:13;;;;;;;5.97;2.60;;;16.90;99.90;;;;;;4954261;29;20286;-83
2021/06/23 10:06:44;;;;;;;4.80;2.70;;;16.80;99.90;;;;;;4950471;29;20235;-82
2021/06/23 10:09:23;;;;;;;6.47;2.93;;;17.00;99.90;;;;;;4955198;29;20203;-82
2021/06/23 10:11:53;;;;;;;6.00;2.80;;;16.70;99.90;;;;;;4952223;29;20203;-82
2021/06/23 10:14:21;;;;;;;3.67;2.40;;;16.30;99.90;;;;;;4952291;29;20384;-82
2021/06/23 10:16:51;;;;;;;5.03;2.60;;;16.30;99.90;;;;;;4945858;29;20207;-83
2021/06/23 10:19:18;;;;;;;5.90;2.53;;;16.30;99.90;;;;;;4939509;29;20251;-83
2021/06/23 10:21:46;;;;;;;5.10;2.90;;;16.20;99.90;;;;;;4941390;29;20274;-83
2021/06/23 10:24:14;;;;;;;5.00;2.80;;;16.40;99.90;;;;;;4943818;29;20756;-83
2021/06/23 10:26:51;;;;;;;4.10;2.70;;;16.70;99.90;;;;;;4951514;29;20656;-83
2021/06/23 10:29:26;;;;;;;5.23;2.87;;;17.20;99.90;;;;;;4949822;29;20251;-82
2021/06/23 10:31:55;;;;;;;5.68;2.70;;;17.30;99.90;;;;;;4940455;29;20285;-83
2021/06/23 10:34:26;;;;;;;6.05;2.95;;;17.50;99.90;;;;;;4935589;29;20734;-83
2021/06/23 10:36:54;;;;;;;3.45;2.58;;;17.70;99.90;;;;;;4946492;29;20207;-83
2021/06/23 10:39:22;;;;;;;4.30;2.33;;;18.50;99.90;;;;;;4954206;29;20302;-83
2021/06/23 10:41:53;;;;;;;4.38;2.30;;;18.40;99.90;;;;;;4954683;29;20285;-83
2021/06/23 10:44:23;;;;;;;3.28;2.20;;;18.10;99.90;;;;;;4940495;29;20283;-83
2021/06/23 10:46:52;;;;;;;2.58;1.95;;;17.90;99.90;;;;;;4944242;29;20239;-82
2021/06/23 10:49:53;;;;;;;3.40;2.50;;;17.60;99.90;;;;;;4951188;29;20227;-83
2021/06/23 10:52:42;;;;;;;2.88;2.15;;;17.50;99.90;;;;;;4942499;29;20223;-83
2021/06/23 10:55:45;;;;;;;3.08;2.10;;;17.40;99.90;;;;;;4945493;29;20196;-83
2021/06/23 10:58:13;;;;;;;4.05;2.17;;;17.50;99.90;;;;;;4941281;29;20557;-83
2021/06/23 11:00:46;;;;;;;5.70;2.60;;;17.70;99.90;;;;;;4941960;29;20294;-83
2021/06/23 11:03:14;;;;;;;3.95;2.35;;;18.00;99.90;;;;;;4921408;29;20211;-83
2021/06/23 11:05:48;;;;;;;5.50;3.08;;;18.30;99.90;;;;;;4949090;29;20601;-81
2021/06/23 11:08:40;;;;;;;3.28;2.80;;;18.10;99.90;;;;;;4950876;29;20228;-83
2021/06/23 11:11:10;;;;;;;4.75;2.97;;;18.20;99.90;;;;;;4952155;29;20669;-83
2021/06/23 11:13:39;;;;;;;5.70;3.20;;;17.90;99.90;;;;;;4938823;29;20199;-82
2021/06/23 11:16:07;;;;;;;3.95;2.83;;;18.00;99.90;;;;;;4948583;29;20694;-82
2021/06/23 11:18:37;;;;;;;4.72;2.78;;;17.90;99.90;;;;;;4948085;29;20325;-82
2021/06/23 11:21:15;;;;;;;5.53;3.38;;;17.90;99.90;;;;;;4951633;29;20318;-82
2021/06/23 11:23:53;;;;;;;6.07;2.97;;;17.80;99.90;;;;;;4947322;29;20649;-82
2021/06/23 11:26:52;;;;;;;5.75;3.22;;;18.30;99.90;;;;;;4952919;29;20199;-81
2021/06/23 11:29:24;;;;;;;3.97;2.75;;;18.20;99.90;;;;;;4937174;29;20200;-81
2021/06/23 11:31:54;;;;;;;5.40;2.90;;;18.30;99.90;;;;;;4944588;29;20203;-83
2021/06/23 11:34:44;;;;;;;3.60;2.33;;;18.20;99.90;;;;;;4954656;29;20211;-84
2021/06/23 11:37:13;;;;;;;5.07;2.65;;;18.50;99.90;;;;;;4950642;29;20604;-81
2021/06/23 11:39:42;;;;;;;3.70;2.50;;;19.00;99.90;;;;;;4950640;29;20282;-83
2021/06/23 11:42:09;;;;;;;3.75;2.50;;;18.10;99.90;;;;;;4948683;29;20203;-83
2021/06/23 11:44:38;;;;;;;4.82;2.40;;;17.80;99.90;;;;;;4939969;29;20230;-82
2021/06/23 11:47:07;;;;;;;3.45;2.60;;;17.80;99.90;;;;;;4942652;29;20211;-83
2021/06/23 11:49:35;;;;;;;3.20;2.65;;;18.10;99.90;;;;;;4955694;29;20278;-83
2021/06/23 11:52:04;;;;;;;2.95;2.50;;;18.20;99.90;;;;;;4956141;29;20207;-82
2021/06/23 11:54:31;;;;;;;3.55;2.55;;;18.30;99.90;;;;;;4938915;29;20235;-83
2021/06/23 11:57:00;;;;;;;4.93;3.05;;;17.90;99.90;;;;;;4937290;29;20199;-83
2021/06/23 11:59:27;;;;;;;6.30;3.15;;;18.40;99.90;;;;;;4950080;28;20318;-83
2021/06/23 12:01:54;;;;;;;8.82;3.28;;;18.40;99.90;;;;;;4955594;28;20285;-83
2021/06/23 12:04:22;;;;;;;6.65;3.75;;;18.10;99.90;;;;;;4958520;28;20239;-83
2021/06/23 12:06:49;;;;;;;6.13;3.05;;;18.30;99.90;;;;;;4955961;29;20206;-83
2021/06/23 12:09:16;;;;;;;5.57;3.10;;;18.40;99.90;;;;;;4956253;29;20293;-83
2021/06/23 12:11:44;;;;;;;4.80;3.00;;;18.40;99.90;;;;;;4956124;28;20308;-83
2021/06/23 12:14:12;;;;;;;9.63;3.65;;;18.90;99.90;;;;;;4946269;29;20286;-83
2021/06/23 12:16:39;;;;;;;6.03;3.30;;;19.40;99.90;;;;;;4946548;29;20231;-83
2021/06/23 12:19:06;;;;;;;6.78;3.55;;;19.40;99.90;;;;;;4938910;29;20306;-83
2021/06/23 12:21:34;;;;;;;7.63;3.67;;;18.80;99.90;;;;;;4948556;29;20274;-83
2021/06/23 12:24:00;;;;;;;5.88;3.33;;;19.00;99.90;;;;;;4955292;29;20538;-83
2021/06/23 12:26:27;;;;;;;3.67;2.65;;;19.80;99.90;;;;;;4941148;29;20235;-83
2021/06/23 12:28:54;;;;;;;3.80;1.98;;;21.80;99.90;;;;;;4953645;29;20217;-84
2021/06/23 12:31:23;;;;;;;4.05;2.70;;;22.90;99.90;;;;;;4955107;29;20281;-83
2021/06/23 12:33:49;;;;;;;3.72;2.47;;;22.40;99.90;;;;;;4953091;29;20711;-83
2021/06/23 12:36:16;;;;;;;4.10;2.70;;;22.90;99.90;;;;;;4943205;29;20212;-83
2021/06/23 12:38:44;;;;;;;5.40;3.10;;;22.30;99.90;;;;;;4936441;29;20207;-83
2021/06/23 12:41:11;;;;;;;5.75;3.30;;;21.90;99.90;;;;;;4938557;29;20231;-83
2021/06/23 12:43:38;;;;;;;3.60;2.95;;;21.30;99.90;;;;;;4945323;29;20238;-83
2021/06/23 12:46:06;;;;;;;5.57;4.15;;;20.90;99.90;;;;;;4946335;29;20637;-83
2021/06/23 12:48:34;;;;;;;7.70;3.80;;;20.90;99.90;;;;;;4946574;29;20577;-84
2021/06/23 12:51:01;;;;;;;7.82;4.22;;;20.00;99.90;;;;;;4950814;28;20603;-84
2021/06/23 12:53:28;;;;;;;5.28;3.80;;;19.40;99.90;;;;;;4960255;28;20306;-83
2021/06/23 12:55:55;;;;;;;6.32;3.92;;;19.10;99.90;;;;;;4952687;29;20754;-83
2021/06/23 12:58:22;;;;;;;5.13;3.75;;;19.00;99.90;;;;;;4944953;29;20239;-83